sensor_id;sensor_type;location;lat;lon;timestamp;pressure;altitude;pressure_sealevel;temperature;humidity
6387;BME280;3226;42.162;24.756;2023-04-07T00:01:59;99485.97;;;5.73;47.39
6387;BME280;3226;42.162;24.756;2023-04-07T00:04:27;99491.72;;;5.91;47.51
6387;BME280;3226;42.162;24.756;2023-04-07T00:06:55;99492.25;;;5.84;46.86
6387;BME280;3226;42.162;24.756;2023-04-07T00:09:25;99487.53;;;5.76;46.94
6387;BME280;3226;42.162;24.756;2023-04-07T00:11:53;99485.75;;;5.76;47.10
6387;BME280;3226;42.162;24.756;2023-04-07T00:14:21;99491.66;;;5.65;47.60
6387;BME280;3226;42.162;24.756;2023-04-07T00:16:49;99494.09;;;5.54;48.54
6387;BME280;3226;42.162;24.756;2023-04-07T00:19:17;99486.50;;;5.51;48.86
6387;BME280;3226;42.162;24.756;2023-04-07T00:21:45;99487.19;;;5.40;48.60
6387;BME280;3226;42.162;24.756;2023-04-07T00:24:13;99486.25;;;5.41;49.41
6387;BME280;3226;42.162;24.756;2023-04-07T00:26:54;99486.06;;;5.44;47.98
6387;BME280;3226;42.162;24.756;2023-04-07T00:29:22;99481.91;;;5.42;48.63
6387;BME280;3226;42.162;24.756;2023-04-07T00:31:50;99485.94;;;5.33;49.02
6387;BME280;3226;42.162;24.756;2023-04-07T00:34:18;99486.13;;;5.30;49.03
6387;BME280;3226;42.162;24.756;2023-04-07T00:36:46;99481.19;;;5.40;48.19
6387;BME280;3226;42.162;24.756;2023-04-07T00:39:18;99497.59;;;5.40;48.54
6387;BME280;3226;42.162;24.756;2023-04-07T00:41:47;99491.50;;;5.27;47.99
6387;BME280;3226;42.162;24.756;2023-04-07T00:44:16;99473.53;;;5.09;48.80
6387;BME280;3226;42.162;24.756;2023-04-07T00:46:46;99490.38;;;5.31;48.10
6387;BME280;3226;42.162;24.756;2023-04-07T00:49:14;99467.44;;;5.10;48.54
6387;BME280;3226;42.162;24.756;2023-04-07T00:51:43;99493.31;;;5.39;48.17
6387;BME280;3226;42.162;24.756;2023-04-07T00:54:12;99493.91;;;5.30;47.64
6387;BME280;3226;42.162;24.756;2023-04-07T00:56:40;99491.31;;;5.30;48.55
6387;BME280;3226;42.162;24.756;2023-04-07T00:59:09;99490.78;;;5.25;48.61
6387;BME280;3226;42.162;24.756;2023-04-07T01:01:43;99493.31;;;5.12;48.38
6387;BME280;3226;42.162;24.756;2023-04-07T01:04:19;99488.13;;;5.12;48.90
6387;BME280;3226;42.162;24.756;2023-04-07T01:06:51;99483.50;;;5.02;48.89
6387;BME280;3226;42.162;24.756;2023-04-07T01:09:25;99482.38;;;5.06;49.83
6387;BME280;3226;42.162;24.756;2023-04-07T01:12:01;99472.19;;;5.03;48.89
6387;BME280;3226;42.162;24.756;2023-04-07T01:14:34;99458.78;;;4.82;49.31
6387;BME280;3226;42.162;24.756;2023-04-07T01:17:06;99480.44;;;4.96;49.22
6387;BME280;3226;42.162;24.756;2023-04-07T01:19:37;99485.50;;;5.12;48.53
6387;BME280;3226;42.162;24.756;2023-04-07T01:22:09;99481.63;;;5.04;49.05
6387;BME280;3226;42.162;24.756;2023-04-07T01:24:48;99478.50;;;4.99;49.59
6387;BME280;3226;42.162;24.756;2023-04-07T01:27:33;99490.75;;;4.97;49.64
6387;BME280;3226;42.162;24.756;2023-04-07T01:30:07;99490.63;;;4.99;49.85
6387;BME280;3226;42.162;24.756;2023-04-07T01:32:38;99484.16;;;4.77;49.98
6387;BME280;3226;42.162;24.756;2023-04-07T01:35:10;99490.38;;;4.74;49.71
6387;BME280;3226;42.162;24.756;2023-04-07T01:37:39;99485.84;;;4.78;50.31
6387;BME280;3226;42.162;24.756;2023-04-07T01:40:09;99490.28;;;4.90;49.78
6387;BME280;3226;42.162;24.756;2023-04-07T01:42:38;99490.38;;;4.74;50.26
6387;BME280;3226;42.162;24.756;2023-04-07T01:45:09;99467.78;;;4.76;49.49
6387;BME280;3226;42.162;24.756;2023-04-07T01:47:38;99498.25;;;4.73;50.01
6387;BME280;3226;42.162;24.756;2023-04-07T01:50:08;99496.56;;;4.72;50.14
6387;BME280;3226;42.162;24.756;2023-04-07T01:52:38;99497.06;;;4.78;49.69
6387;BME280;3226;42.162;24.756;2023-04-07T01:55:07;99490.13;;;4.79;49.97
6387;BME280;3226;42.162;24.756;2023-04-07T01:57:35;99495.22;;;4.66;50.93
6387;BME280;3226;42.162;24.756;2023-04-07T02:00:05;99478.97;;;4.62;49.95
6387;BME280;3226;42.162;24.756;2023-04-07T02:02:37;99482.50;;;4.76;50.40
6387;BME280;3226;42.162;24.756;2023-04-07T02:05:12;99492.06;;;4.75;50.76
6387;BME280;3226;42.162;24.756;2023-04-07T02:07:51;99489.34;;;4.77;51.43
6387;BME280;3226;42.162;24.756;2023-04-07T02:10:22;99487.78;;;4.74;50.81
6387;BME280;3226;42.162;24.756;2023-04-07T02:12:51;99484.53;;;4.71;50.13
6387;BME280;3226;42.162;24.756;2023-04-07T02:15:20;99484.16;;;4.62;50.11
6387;BME280;3226;42.162;24.756;2023-04-07T02:17:51;99488.88;;;4.56;50.79
6387;BME280;3226;42.162;24.756;2023-04-07T02:20:20;99491.66;;;4.53;50.98
6387;BME280;3226;42.162;24.756;2023-04-07T02:22:50;99495.28;;;4.65;50.53
6387;BME280;3226;42.162;24.756;2023-04-07T02:25:23;99480.84;;;4.60;50.21
6387;BME280;3226;42.162;24.756;2023-04-07T02:27:52;99496.13;;;4.51;50.58
6387;BME280;3226;42.162;24.756;2023-04-07T02:30:21;99486.03;;;4.60;50.43
6387;BME280;3226;42.162;24.756;2023-04-07T02:32:50;99491.97;;;4.48;50.14
6387;BME280;3226;42.162;24.756;2023-04-07T02:35:19;99491.66;;;4.53;50.19
6387;BME280;3226;42.162;24.756;2023-04-07T02:37:47;99493.53;;;4.51;49.61
6387;BME280;3226;42.162;24.756;2023-04-07T02:40:16;99496.41;;;4.60;49.39
6387;BME280;3226;42.162;24.756;2023-04-07T02:42:44;99497.88;;;4.65;49.58
6387;BME280;3226;42.162;24.756;2023-04-07T02:45:12;99501.59;;;4.60;49.75
6387;BME280;3226;42.162;24.756;2023-04-07T02:47:41;99497.69;;;4.53;50.12
6387;BME280;3226;42.162;24.756;2023-04-07T02:50:11;99501.84;;;4.56;49.43
6387;BME280;3226;42.162;24.756;2023-04-07T02:52:39;99508.06;;;4.53;49.50
6387;BME280;3226;42.162;24.756;2023-04-07T02:55:08;99500.09;;;4.42;50.02
6387;BME280;3226;42.162;24.756;2023-04-07T02:57:36;99503.97;;;4.34;48.43
6387;BME280;3226;42.162;24.756;2023-04-07T03:00:05;99500.75;;;4.45;49.42
6387;BME280;3226;42.162;24.756;2023-04-07T03:02:33;99511.38;;;4.41;50.03
6387;BME280;3226;42.162;24.756;2023-04-07T03:05:01;99503.78;;;4.38;50.08
6387;BME280;3226;42.162;24.756;2023-04-07T03:07:31;99506.56;;;4.34;49.59
6387;BME280;3226;42.162;24.756;2023-04-07T03:09:59;99485.63;;;4.23;49.66
6387;BME280;3226;42.162;24.756;2023-04-07T03:12:27;99481.19;;;4.25;50.07
6387;BME280;3226;42.162;24.756;2023-04-07T03:14:55;99503.16;;;4.48;50.49
6387;BME280;3226;42.162;24.756;2023-04-07T03:17:23;99504.19;;;4.60;49.31
6387;BME280;3226;42.162;24.756;2023-04-07T03:19:52;99507.41;;;4.49;49.75
6387;BME280;3226;42.162;24.756;2023-04-07T03:22:19;99506.84;;;4.44;50.61
6387;BME280;3226;42.162;24.756;2023-04-07T03:24:49;99500.00;;;4.43;50.12
6387;BME280;3226;42.162;24.756;2023-04-07T03:27:17;99510.47;;;4.42;51.86
6387;BME280;3226;42.162;24.756;2023-04-07T03:29:45;99513.25;;;4.53;50.68
6387;BME280;3226;42.162;24.756;2023-04-07T03:32:13;99511.16;;;4.60;51.37
6387;BME280;3226;42.162;24.756;2023-04-07T03:34:41;99513.06;;;4.56;50.09
6387;BME280;3226;42.162;24.756;2023-04-07T03:37:09;99513.44;;;4.65;49.12
6387;BME280;3226;42.162;24.756;2023-04-07T03:39:37;99518.25;;;4.71;49.41
6387;BME280;3226;42.162;24.756;2023-04-07T03:42:08;99516.50;;;4.71;48.76
6387;BME280;3226;42.162;24.756;2023-04-07T03:44:35;99405.97;;;3.96;49.37
6387;BME280;3226;42.162;24.756;2023-04-07T03:47:03;99528.09;;;4.66;49.01
6387;BME280;3226;42.162;24.756;2023-04-07T03:49:31;99530.03;;;4.62;50.02
6387;BME280;3226;42.162;24.756;2023-04-07T03:51:59;99524.94;;;4.60;48.85
6387;BME280;3226;42.162;24.756;2023-04-07T03:54:27;99505.38;;;4.55;49.27
6387;BME280;3226;42.162;24.756;2023-04-07T03:56:55;99539.38;;;4.65;49.47
6387;BME280;3226;42.162;24.756;2023-04-07T03:59:25;99535.00;;;4.51;49.12
6387;BME280;3226;42.162;24.756;2023-04-07T04:01:53;99521.00;;;4.39;50.29
6387;BME280;3226;42.162;24.756;2023-04-07T04:04:21;99534.00;;;4.53;49.59
6387;BME280;3226;42.162;24.756;2023-04-07T04:06:50;99530.69;;;4.51;49.48
6387;BME280;3226;42.162;24.756;2023-04-07T04:09:18;99529.56;;;4.55;50.26
6387;BME280;3226;42.162;24.756;2023-04-07T04:11:46;99533.47;;;4.62;50.57
6387;BME280;3226;42.162;24.756;2023-04-07T04:14:14;99531.41;;;4.68;49.55
6387;BME280;3226;42.162;24.756;2023-04-07T04:16:44;99539.56;;;4.61;50.47
6387;BME280;3226;42.162;24.756;2023-04-07T04:19:12;99544.38;;;4.68;50.65
6387;BME280;3226;42.162;24.756;2023-04-07T04:21:40;99546.16;;;4.67;51.27
6387;BME280;3226;42.162;24.756;2023-04-07T04:24:08;99545.50;;;4.63;49.61
6387;BME280;3226;42.162;24.756;2023-04-07T04:26:36;99549.94;;;4.76;50.26
6387;BME280;3226;42.162;24.756;2023-04-07T04:29:04;99559.50;;;4.90;48.18
6387;BME280;3226;42.162;24.756;2023-04-07T04:31:32;99562.09;;;4.90;48.94
6387;BME280;3226;42.162;24.756;2023-04-07T04:34:01;99560.72;;;4.99;48.19
6387;BME280;3226;42.162;24.756;2023-04-07T04:36:29;99562.09;;;4.90;49.01
6387;BME280;3226;42.162;24.756;2023-04-07T04:38:57;99568.50;;;5.13;48.88
6387;BME280;3226;42.162;24.756;2023-04-07T04:41:25;99558.09;;;5.28;48.94
6387;BME280;3226;42.162;24.756;2023-04-07T04:43:53;99572.16;;;5.38;47.87
6387;BME280;3226;42.162;24.756;2023-04-07T04:46:21;99575.50;;;5.40;47.43
6387;BME280;3226;42.162;24.756;2023-04-07T04:48:49;99569.03;;;5.33;47.84
6387;BME280;3226;42.162;24.756;2023-04-07T04:51:19;99571.25;;;5.25;48.18
6387;BME280;3226;42.162;24.756;2023-04-07T04:53:47;99579.72;;;5.14;47.03
6387;BME280;3226;42.162;24.756;2023-04-07T04:56:15;99572.66;;;5.30;47.88
6387;BME280;3226;42.162;24.756;2023-04-07T04:58:43;99578.84;;;5.42;48.10
6387;BME280;3226;42.162;24.756;2023-04-07T05:01:12;99579.22;;;5.50;47.14
6387;BME280;3226;42.162;24.756;2023-04-07T05:03:40;99565.84;;;5.42;47.12
6387;BME280;3226;42.162;24.756;2023-04-07T05:06:08;99459.06;;;4.77;48.33
6387;BME280;3226;42.162;24.756;2023-04-07T05:08:38;99585.88;;;5.55;46.71
6387;BME280;3226;42.162;24.756;2023-04-07T05:11:06;99584.44;;;5.63;46.59
6387;BME280;3226;42.162;24.756;2023-04-07T05:13:34;99593.91;;;5.64;47.48
6387;BME280;3226;42.162;24.756;2023-04-07T05:16:02;99597.09;;;5.83;46.01
6387;BME280;3226;42.162;24.756;2023-04-07T05:18:30;99604.22;;;5.93;45.78
6387;BME280;3226;42.162;24.756;2023-04-07T05:20:58;99595.50;;;5.94;45.69
6387;BME280;3226;42.162;24.756;2023-04-07T05:23:27;99601.09;;;6.16;45.82
6387;BME280;3226;42.162;24.756;2023-04-07T05:25:56;99606.03;;;6.33;47.08
6387;BME280;3226;42.162;24.756;2023-04-07T05:28:24;99607.16;;;6.16;44.50
6387;BME280;3226;42.162;24.756;2023-04-07T05:30:52;99602.09;;;6.41;44.77
6387;BME280;3226;42.162;24.756;2023-04-07T05:33:20;99608.78;;;6.58;45.35
6387;BME280;3226;42.162;24.756;2023-04-07T05:35:48;99608.81;;;6.97;43.98
6387;BME280;3226;42.162;24.756;2023-04-07T05:38:16;99607.59;;;7.40;43.42
6387;BME280;3226;42.162;24.756;2023-04-07T05:40:45;99609.38;;;7.52;42.54
6387;BME280;3226;42.162;24.756;2023-04-07T05:43:15;99599.97;;;7.49;42.87
6387;BME280;3226;42.162;24.756;2023-04-07T05:45:43;99603.81;;;7.57;42.65
6387;BME280;3226;42.162;24.756;2023-04-07T05:48:11;99605.28;;;7.61;43.35
6387;BME280;3226;42.162;24.756;2023-04-07T05:50:39;99603.78;;;7.70;42.80
6387;BME280;3226;42.162;24.756;2023-04-07T05:53:07;99607.41;;;8.04;43.63
6387;BME280;3226;42.162;24.756;2023-04-07T05:55:35;99611.09;;;8.37;43.73
6387;BME280;3226;42.162;24.756;2023-04-07T05:58:03;99608.72;;;8.34;41.07
6387;BME280;3226;42.162;24.756;2023-04-07T06:00:32;99612.81;;;8.50;42.28
6387;BME280;3226;42.162;24.756;2023-04-07T06:03:00;99608.06;;;8.55;39.81
6387;BME280;3226;42.162;24.756;2023-04-07T06:05:29;99617.47;;;7.60;39.90
6387;BME280;3226;42.162;24.756;2023-04-07T06:07:57;99610.16;;;7.65;40.75
6387;BME280;3226;42.162;24.756;2023-04-07T06:10:25;99609.34;;;7.89;40.45
6387;BME280;3226;42.162;24.756;2023-04-07T06:12:53;99610.97;;;7.79;39.24
6387;BME280;3226;42.162;24.756;2023-04-07T06:15:21;99618.59;;;8.18;39.26
6387;BME280;3226;42.162;24.756;2023-04-07T06:17:51;99624.38;;;8.70;39.07
6387;BME280;3226;42.162;24.756;2023-04-07T06:20:19;99605.56;;;9.12;37.59
6387;BME280;3226;42.162;24.756;2023-04-07T06:22:48;99617.31;;;9.29;36.55
6387;BME280;3226;42.162;24.756;2023-04-07T06:25:16;99625.88;;;8.61;36.69
6387;BME280;3226;42.162;24.756;2023-04-07T06:27:44;99625.22;;;8.71;37.30
6387;BME280;3226;42.162;24.756;2023-04-07T06:30:13;99632.59;;;8.77;36.98
6387;BME280;3226;42.162;24.756;2023-04-07T06:32:41;99622.09;;;8.30;37.80
6387;BME280;3226;42.162;24.756;2023-04-07T06:35:11;99633.41;;;8.42;38.72
6387;BME280;3226;42.162;24.756;2023-04-07T06:37:39;99633.94;;;8.58;37.69
6387;BME280;3226;42.162;24.756;2023-04-07T06:40:07;99628.78;;;8.81;37.90
6387;BME280;3226;42.162;24.756;2023-04-07T06:42:36;99637.38;;;9.29;38.61
6387;BME280;3226;42.162;24.756;2023-04-07T06:45:04;99635.38;;;9.32;35.92
6387;BME280;3226;42.162;24.756;2023-04-07T06:47:32;99635.69;;;9.62;36.58
6387;BME280;3226;42.162;24.756;2023-04-07T06:50:00;99632.94;;;10.19;35.97
6387;BME280;3226;42.162;24.756;2023-04-07T06:52:30;99639.09;;;10.83;35.56
6387;BME280;3226;42.162;24.756;2023-04-07T06:54:57;99637.25;;;11.05;34.33
6387;BME280;3226;42.162;24.756;2023-04-07T06:57:26;99640.28;;;10.58;33.53
6387;BME280;3226;42.162;24.756;2023-04-07T06:59:54;99643.13;;;11.18;33.59
6387;BME280;3226;42.162;24.756;2023-04-07T07:02:22;99649.28;;;11.38;33.95
6387;BME280;3226;42.162;24.756;2023-04-07T07:04:50;99637.94;;;10.97;33.51
6387;BME280;3226;42.162;24.756;2023-04-07T07:07:18;99640.16;;;10.59;32.94
6387;BME280;3226;42.162;24.756;2023-04-07T07:09:48;99639.44;;;11.31;32.38
6387;BME280;3226;42.162;24.756;2023-04-07T07:12:16;99641.06;;;10.04;33.93
6387;BME280;3226;42.162;24.756;2023-04-07T07:14:44;99624.38;;;10.17;35.48
6387;BME280;3226;42.162;24.756;2023-04-07T07:17:12;99645.56;;;11.41;34.73
6387;BME280;3226;42.162;24.756;2023-04-07T07:19:40;99645.97;;;11.87;32.86
6387;BME280;3226;42.162;24.756;2023-04-07T07:22:09;99654.88;;;12.35;33.58
6387;BME280;3226;42.162;24.756;2023-04-07T07:24:37;99558.56;;;12.16;31.30
6387;BME280;3226;42.162;24.756;2023-04-07T07:27:06;99637.16;;;11.47;30.71
6387;BME280;3226;42.162;24.756;2023-04-07T07:29:34;99645.88;;;11.48;31.21
6387;BME280;3226;42.162;24.756;2023-04-07T07:32:02;99651.59;;;11.01;32.48
6387;BME280;3226;42.162;24.756;2023-04-07T07:34:31;99655.22;;;11.91;33.44
6387;BME280;3226;42.162;24.756;2023-04-07T07:36:59;99645.03;;;12.67;30.72
6387;BME280;3226;42.162;24.756;2023-04-07T07:39:27;99657.91;;;13.27;31.56
6387;BME280;3226;42.162;24.756;2023-04-07T07:41:56;99651.09;;;12.87;30.46
6387;BME280;3226;42.162;24.756;2023-04-07T07:44:25;99645.31;;;12.73;30.91
6387;BME280;3226;42.162;24.756;2023-04-07T07:46:55;99641.84;;;11.84;31.21
6387;BME280;3226;42.162;24.756;2023-04-07T07:49:23;99647.00;;;12.06;31.79
6387;BME280;3226;42.162;24.756;2023-04-07T07:51:51;99643.69;;;12.43;32.73
6387;BME280;3226;42.162;24.756;2023-04-07T07:54:19;99648.50;;;13.25;30.89
6387;BME280;3226;42.162;24.756;2023-04-07T07:56:48;99645.28;;;13.69;31.01
6387;BME280;3226;42.162;24.756;2023-04-07T07:59:16;99647.59;;;13.54;30.35
6387;BME280;3226;42.162;24.756;2023-04-07T08:01:45;99625.09;;;12.84;31.02
6387;BME280;3226;42.162;24.756;2023-04-07T08:04:13;99635.09;;;12.61;30.93
6387;BME280;3226;42.162;24.756;2023-04-07T08:06:41;99638.00;;;11.17;31.74
6387;BME280;3226;42.162;24.756;2023-04-07T08:09:09;99635.41;;;12.28;33.68
6387;BME280;3226;42.162;24.756;2023-04-07T08:11:37;99628.63;;;12.15;31.23
6387;BME280;3226;42.162;24.756;2023-04-07T08:14:05;99641.47;;;12.38;31.48
6387;BME280;3226;42.162;24.756;2023-04-07T08:16:35;99640.44;;;12.98;31.52
6387;BME280;3226;42.162;24.756;2023-04-07T08:19:05;99634.97;;;12.42;30.38
6387;BME280;3226;42.162;24.756;2023-04-07T08:21:33;99636.34;;;12.76;30.09
6387;BME280;3226;42.162;24.756;2023-04-07T08:24:01;99606.22;;;12.02;30.90
6387;BME280;3226;42.162;24.756;2023-04-07T08:26:30;99627.03;;;12.82;30.00
6387;BME280;3226;42.162;24.756;2023-04-07T08:28:58;99626.81;;;12.65;31.18
6387;BME280;3226;42.162;24.756;2023-04-07T08:31:26;99630.06;;;12.87;30.87
6387;BME280;3226;42.162;24.756;2023-04-07T08:33:54;99626.78;;;12.75;30.48
6387;BME280;3226;42.162;24.756;2023-04-07T08:36:25;99624.84;;;11.98;31.04
6387;BME280;3226;42.162;24.756;2023-04-07T08:38:54;99614.25;;;12.49;32.36
6387;BME280;3226;42.162;24.756;2023-04-07T08:41:27;99605.50;;;11.99;31.19
6387;BME280;3226;42.162;24.756;2023-04-07T08:43:57;99610.94;;;11.47;32.71
6387;BME280;3226;42.162;24.756;2023-04-07T08:46:27;99614.09;;;11.92;34.54
6387;BME280;3226;42.162;24.756;2023-04-07T08:48:56;99600.66;;;12.73;32.00
6387;BME280;3226;42.162;24.756;2023-04-07T08:51:28;99600.91;;;12.80;30.85
6387;BME280;3226;42.162;24.756;2023-04-07T08:54:04;99607.88;;;12.52;32.05
6387;BME280;3226;42.162;24.756;2023-04-07T08:56:33;99608.56;;;12.54;32.19
6387;BME280;3226;42.162;24.756;2023-04-07T08:59:01;99605.34;;;13.18;32.12
6387;BME280;3226;42.162;24.756;2023-04-07T09:01:30;99588.16;;;13.23;31.68
6387;BME280;3226;42.162;24.756;2023-04-07T09:03:59;99604.19;;;12.25;30.66
6387;BME280;3226;42.162;24.756;2023-04-07T09:06:30;99606.06;;;12.62;30.45
6387;BME280;3226;42.162;24.756;2023-04-07T09:08:58;99600.78;;;13.20;32.68
6387;BME280;3226;42.162;24.756;2023-04-07T09:11:27;99600.66;;;12.73;31.69
6387;BME280;3226;42.162;24.756;2023-04-07T09:13:56;99607.34;;;12.96;30.67
6387;BME280;3226;42.162;24.756;2023-04-07T09:16:27;99601.63;;;13.38;30.29
6387;BME280;3226;42.162;24.756;2023-04-07T09:18:56;99607.53;;;13.60;30.71
6387;BME280;3226;42.162;24.756;2023-04-07T09:21:25;99597.81;;;12.37;31.40
6387;BME280;3226;42.162;24.756;2023-04-07T09:23:54;99602.38;;;13.02;32.81
6387;BME280;3226;42.162;24.756;2023-04-07T09:26:24;99602.63;;;12.52;31.13
6387;BME280;3226;42.162;24.756;2023-04-07T09:28:55;99595.22;;;13.23;32.68
6387;BME280;3226;42.162;24.756;2023-04-07T09:31:43;99598.34;;;14.37;29.36
6387;BME280;3226;42.162;24.756;2023-04-07T09:34:23;99598.72;;;14.42;28.83
6387;BME280;3226;42.162;24.756;2023-04-07T09:36:51;99588.28;;;13.96;28.56
6387;BME280;3226;42.162;24.756;2023-04-07T09:39:21;99592.16;;;13.27;30.17
6387;BME280;3226;42.162;24.756;2023-04-07T09:41:49;99588.91;;;13.90;28.79
6387;BME280;3226;42.162;24.756;2023-04-07T09:44:17;99582.66;;;13.72;31.59
6387;BME280;3226;42.162;24.756;2023-04-07T09:46:49;99586.63;;;14.13;29.32
6387;BME280;3226;42.162;24.756;2023-04-07T09:49:17;99571.84;;;14.56;29.22
6387;BME280;3226;42.162;24.756;2023-04-07T09:51:56;99585.50;;;14.78;28.96
6387;BME280;3226;42.162;24.756;2023-04-07T09:54:34;99587.28;;;14.51;30.27
6387;BME280;3226;42.162;24.756;2023-04-07T09:57:03;99588.94;;;15.05;29.13
6387;BME280;3226;42.162;24.756;2023-04-07T09:59:32;99590.34;;;14.91;30.37
6387;BME280;3226;42.162;24.756;2023-04-07T10:02:01;99589.63;;;14.81;28.47
6387;BME280;3226;42.162;24.756;2023-04-07T10:04:29;99588.47;;;14.57;29.05
6387;BME280;3226;42.162;24.756;2023-04-07T10:06:58;99584.91;;;14.22;29.87
6387;BME280;3226;42.162;24.756;2023-04-07T10:09:27;99569.84;;;13.59;31.96
6387;BME280;3226;42.162;24.756;2023-04-07T10:11:57;99583.78;;;14.06;30.25
6387;BME280;3226;42.162;24.756;2023-04-07T10:14:26;99580.94;;;13.99;30.35
6387;BME280;3226;42.162;24.756;2023-04-07T10:16:55;99587.16;;;14.16;30.79
6387;BME280;3226;42.162;24.756;2023-04-07T10:19:24;99580.63;;;14.21;29.59
6387;BME280;3226;42.162;24.756;2023-04-07T10:21:54;99575.63;;;13.35;30.29
6387;BME280;3226;42.162;24.756;2023-04-07T10:24:32;99573.22;;;13.24;31.01
6387;BME280;3226;42.162;24.756;2023-04-07T10:27:10;99581.06;;;12.96;31.16
6387;BME280;3226;42.162;24.756;2023-04-07T10:29:41;99578.47;;;12.19;34.42
6387;BME280;3226;42.162;24.756;2023-04-07T10:32:10;99582.00;;;11.59;32.59
6387;BME280;3226;42.162;24.756;2023-04-07T10:34:57;99574.66;;;11.52;32.98
6387;BME280;3226;42.162;24.756;2023-04-07T10:37:26;99577.06;;;11.85;33.99
6387;BME280;3226;42.162;24.756;2023-04-07T10:40:28;99579.69;;;11.24;34.51
6387;BME280;3226;42.162;24.756;2023-04-07T10:42:58;99579.38;;;11.18;34.30
6387;BME280;3226;42.162;24.756;2023-04-07T10:45:54;99570.97;;;10.83;33.95
6387;BME280;3226;42.162;24.756;2023-04-07T10:48:25;99571.47;;;10.77;34.47
6387;BME280;3226;42.162;24.756;2023-04-07T10:51:15;99560.41;;;11.35;33.74
6387;BME280;3226;42.162;24.756;2023-04-07T10:54:17;99567.66;;;11.63;34.14
6387;BME280;3226;42.162;24.756;2023-04-07T10:57:08;99566.97;;;11.80;33.42
6387;BME280;3226;42.162;24.756;2023-04-07T10:59:40;99574.81;;;11.61;33.29
6387;BME280;3226;42.162;24.756;2023-04-07T11:02:31;99564.69;;;11.46;33.06
6387;BME280;3226;42.162;24.756;2023-04-07T11:05:01;99564.94;;;11.23;33.48
6387;BME280;3226;42.162;24.756;2023-04-07T11:07:48;99557.97;;;11.63;36.73
6387;BME280;3226;42.162;24.756;2023-04-07T11:10:17;99560.22;;;11.78;33.49
6387;BME280;3226;42.162;24.756;2023-04-07T11:12:58;99549.88;;;12.15;32.46
6387;BME280;3226;42.162;24.756;2023-04-07T11:15:27;99555.25;;;11.84;33.00
6387;BME280;3226;42.162;24.756;2023-04-07T11:18:12;99561.16;;;11.67;34.54
6387;BME280;3226;42.162;24.756;2023-04-07T11:20:44;99563.09;;;11.65;34.57
6387;BME280;3226;42.162;24.756;2023-04-07T11:23:14;99545.00;;;11.62;33.85
6387;BME280;3226;42.162;24.756;2023-04-07T11:25:43;99569.59;;;11.20;34.64
6387;BME280;3226;42.162;24.756;2023-04-07T11:28:12;99562.84;;;11.27;34.94
6387;BME280;3226;42.162;24.756;2023-04-07T11:30:47;99560.41;;;11.45;35.45
6387;BME280;3226;42.162;24.756;2023-04-07T11:33:18;99544.84;;;11.43;34.70
6387;BME280;3226;42.162;24.756;2023-04-07T11:35:52;99536.53;;;11.38;34.80
6387;BME280;3226;42.162;24.756;2023-04-07T11:38:22;99548.88;;;11.97;34.12
6387;BME280;3226;42.162;24.756;2023-04-07T11:40:51;99555.38;;;12.22;33.85
6387;BME280;3226;42.162;24.756;2023-04-07T11:43:21;99534.41;;;12.12;34.12
6387;BME280;3226;42.162;24.756;2023-04-07T11:46:08;99549.53;;;12.58;33.97
6387;BME280;3226;42.162;24.756;2023-04-07T11:48:38;99553.16;;;12.27;34.82
6387;BME280;3226;42.162;24.756;2023-04-07T11:51:14;99547.09;;;11.78;34.81
6387;BME280;3226;42.162;24.756;2023-04-07T11:53:43;99526.78;;;11.70;35.31
6387;BME280;3226;42.162;24.756;2023-04-07T11:56:14;99546.81;;;11.91;34.27
6387;BME280;3226;42.162;24.756;2023-04-07T11:58:47;99542.25;;;11.83;34.42
6387;BME280;3226;42.162;24.756;2023-04-07T12:01:17;99526.22;;;11.47;36.67
6387;BME280;3226;42.162;24.756;2023-04-07T12:03:56;99542.09;;;11.94;34.98
6387;BME280;3226;42.162;24.756;2023-04-07T12:06:28;99539.06;;;11.89;34.39
6387;BME280;3226;42.162;24.756;2023-04-07T12:08:59;99538.13;;;12.00;34.71
6387;BME280;3226;42.162;24.756;2023-04-07T12:11:27;99544.59;;;11.96;34.18
6387;BME280;3226;42.162;24.756;2023-04-07T12:13:55;99533.97;;;12.27;33.16
6387;BME280;3226;42.162;24.756;2023-04-07T12:16:25;99539.47;;;12.43;33.93
6387;BME280;3226;42.162;24.756;2023-04-07T12:18:53;99535.28;;;12.61;33.14
6387;BME280;3226;42.162;24.756;2023-04-07T12:21:21;99536.91;;;12.71;33.22
6387;BME280;3226;42.162;24.756;2023-04-07T12:23:49;99543.91;;;12.81;34.60
6387;BME280;3226;42.162;24.756;2023-04-07T12:26:17;99548.94;;;13.02;33.07
6387;BME280;3226;42.162;24.756;2023-04-07T12:28:49;99540.72;;;12.87;33.25
6387;BME280;3226;42.162;24.756;2023-04-07T12:31:17;99535.88;;;12.44;33.41
6387;BME280;3226;42.162;24.756;2023-04-07T12:33:46;99535.63;;;12.28;34.24
6387;BME280;3226;42.162;24.756;2023-04-07T12:36:14;99522.25;;;12.11;35.34
6387;BME280;3226;42.162;24.756;2023-04-07T12:38:42;99537.56;;;11.77;35.70
6387;BME280;3226;42.162;24.756;2023-04-07T12:41:11;99531.06;;;11.91;36.67
6387;BME280;3226;42.162;24.756;2023-04-07T12:43:39;99536.19;;;12.02;35.29
6387;BME280;3226;42.162;24.756;2023-04-07T12:46:07;99534.09;;;12.35;35.47
6387;BME280;3226;42.162;24.756;2023-04-07T12:48:35;99534.16;;;12.63;35.14
6387;BME280;3226;42.162;24.756;2023-04-07T12:51:04;99525.91;;;12.48;34.52
6387;BME280;3226;42.162;24.756;2023-04-07T12:53:32;99529.50;;;12.47;34.81
6387;BME280;3226;42.162;24.756;2023-04-07T12:56:01;99531.19;;;12.38;37.47
6387;BME280;3226;42.162;24.756;2023-04-07T12:58:29;99521.94;;;12.24;36.20
6387;BME280;3226;42.162;24.756;2023-04-07T13:00:57;99529.81;;;12.34;36.69
6387;BME280;3226;42.162;24.756;2023-04-07T13:03:26;99523.09;;;12.60;36.43
6387;BME280;3226;42.162;24.756;2023-04-07T13:05:56;99525.44;;;12.15;36.82
6387;BME280;3226;42.162;24.756;2023-04-07T13:08:28;99524.03;;;12.21;37.84
6387;BME280;3226;42.162;24.756;2023-04-07T13:10:56;99513.78;;;12.18;37.25
6387;BME280;3226;42.162;24.756;2023-04-07T13:13:24;99518.81;;;12.01;37.12
6387;BME280;3226;42.162;24.756;2023-04-07T13:15:52;99515.91;;;12.04;37.68
6387;BME280;3226;42.162;24.756;2023-04-07T13:18:20;99521.66;;;12.37;37.33
6387;BME280;3226;42.162;24.756;2023-04-07T13:20:48;99516.44;;;12.75;37.06
6387;BME280;3226;42.162;24.756;2023-04-07T13:23:38;99522.50;;;12.76;37.18
6387;BME280;3226;42.162;24.756;2023-04-07T13:26:09;99522.09;;;12.23;37.43
6387;BME280;3226;42.162;24.756;2023-04-07T13:28:37;99522.09;;;12.23;37.63
6387;BME280;3226;42.162;24.756;2023-04-07T13:31:05;99525.72;;;12.12;38.52
6387;BME280;3226;42.162;24.756;2023-04-07T13:33:33;99510.56;;;12.43;38.53